Time;durP1;ratioP1;P1;durP2;ratioP2;P2;SDS_P1;SDS_P2;PMS_P1;PMS_P2;Temp;Humidity;BMP_temperature;BMP_pressure;BME280_temperature;BME280_humidity;BME280_pressure;Samples;Min_cycle;Max_cycle;Signal;HPM_P1;HPM_P2
2022/04/17 00:02:09;;;;;;;3.97;2.60;;;8.60;99.90;;;;;;5157141;27;20639;-72
2022/04/17 00:04:36;;;;;;;2.85;2.40;;;8.60;99.90;;;;;;5137622;27;20247;-71
2022/04/17 00:07:03;;;;;;;2.60;2.28;;;8.60;99.90;;;;;;5138698;27;20182;-71
2022/04/17 00:09:29;;;;;;;3.42;2.42;;;8.50;99.90;;;;;;5138169;27;20199;-71
2022/04/17 00:11:58;;;;;;;2.90;2.40;;;8.50;99.90;;;;;;5138267;27;20638;-71
2022/04/17 00:14:25;;;;;;;2.70;2.22;;;8.40;99.90;;;;;;5138482;27;20206;-71
2022/04/17 00:16:51;;;;;;;4.15;2.60;;;8.40;99.90;;;;;;5124477;27;20175;-71
2022/04/17 00:19:18;;;;;;;5.07;3.27;;;8.40;99.90;;;;;;5117880;27;20241;-71
2022/04/17 00:21:45;;;;;;;3.72;2.90;;;8.30;99.90;;;;;;5117759;27;20437;-71
2022/04/17 00:24:15;;;;;;;3.13;2.20;;;8.30;99.90;;;;;;5134630;27;20720;-71
2022/04/17 00:26:44;;;;;;;5.75;2.67;;;8.30;99.90;;;;;;5117276;27;20187;-72
2022/04/17 00:29:12;;;;;;;2.33;1.90;;;8.30;99.90;;;;;;5117491;27;20205;-71
2022/04/17 00:31:39;;;;;;;2.70;2.50;;;8.30;99.90;;;;;;5133498;27;20241;-71
2022/04/17 00:34:08;;;;;;;4.83;3.00;;;8.20;99.90;;;;;;5117364;27;20179;-71
2022/04/17 00:36:35;;;;;;;4.40;2.90;;;8.20;99.90;;;;;;5117461;27;20431;-71
2022/04/17 00:39:01;;;;;;;3.58;2.85;;;8.20;99.90;;;;;;5116958;27;20171;-71
2022/04/17 00:41:31;;;;;;;3.88;2.50;;;8.20;99.90;;;;;;5134640;27;20576;-71
2022/04/17 00:43:57;;;;;;;3.05;2.17;;;8.20;99.90;;;;;;5136075;27;20226;-71
2022/04/17 00:46:23;;;;;;;4.10;2.38;;;8.20;99.90;;;;;;5117175;27;20663;-71
2022/04/17 00:48:49;;;;;;;2.00;1.80;;;8.20;99.90;;;;;;5134151;27;20224;-71
2022/04/17 00:51:16;;;;;;;4.10;2.67;;;8.10;99.90;;;;;;5135819;27;20281;-71
2022/04/17 00:56:25;;;;;;;4.00;2.38;;;8.10;99.90;;;;;;5142454;22;20254;-71
2022/04/17 00:58:52;;;;;;;2.90;2.30;;;8.10;99.90;;;;;;5116553;27;20175;-71
2022/04/17 01:01:18;;;;;;;4.18;2.70;;;8.10;99.90;;;;;;5117004;27;20341;-71
2022/04/17 01:03:44;;;;;;;4.32;2.40;;;8.10;99.90;;;;;;5135289;27;20173;-71
2022/04/17 01:06:11;;;;;;;4.70;2.95;;;8.00;99.90;;;;;;5116746;27;20299;-71
2022/04/17 01:08:46;;;;;;;2.90;2.28;;;8.00;99.90;;;;;;5116691;27;20185;-71
2022/04/17 01:11:17;;;;;;;3.85;2.17;;;8.00;99.90;;;;;;5116000;27;20569;-71
2022/04/17 01:13:43;;;;;;;4.03;2.40;;;8.00;99.90;;;;;;5116814;27;20204;-71
2022/04/17 01:16:13;;;;;;;2.35;2.03;;;8.00;99.90;;;;;;5116046;27;20199;-71
2022/04/17 01:18:57;;;;;;;2.75;2.35;;;8.00;99.90;;;;;;5116713;27;20592;-71
2022/04/17 01:21:35;;;;;;;9.85;2.72;;;7.90;99.90;;;;;;5116580;27;20222;-71
2022/04/17 01:27:03;;;;;;;4.30;2.22;;;8.00;99.90;;;;;;5135314;27;20167;-71
2022/04/17 01:29:42;;;;;;;2.72;1.92;;;7.90;99.90;;;;;;5116929;27;20213;-71
2022/04/17 01:32:13;;;;;;;3.10;2.22;;;7.90;99.90;;;;;;5116513;27;20183;-71
2022/04/17 01:34:40;;;;;;;3.42;2.10;;;7.90;99.90;;;;;;5116332;28;20212;-71
2022/04/17 01:37:06;;;;;;;2.33;1.70;;;7.90;99.90;;;;;;5116765;28;20171;-71
2022/04/17 01:39:32;;;;;;;3.90;2.65;;;7.80;99.90;;;;;;5116166;28;20233;-71
2022/04/17 01:42:00;;;;;;;3.20;2.13;;;7.80;99.90;;;;;;5116439;28;20179;-71
2022/04/17 01:44:28;;;;;;;4.30;2.77;;;7.70;99.90;;;;;;5116392;28;20205;-71
2022/04/17 01:46:55;;;;;;;4.53;2.50;;;7.70;99.90;;;;;;5116081;28;20963;-71
2022/04/17 01:49:21;;;;;;;4.13;3.28;;;7.70;99.90;;;;;;5115998;28;20755;-71
2022/04/17 01:51:51;;;;;;;4.47;2.45;;;7.60;99.90;;;;;;5116077;28;20179;-71
2022/04/17 01:54:23;;;;;;;4.63;2.83;;;7.60;99.90;;;;;;5111977;28;20213;-71
2022/04/17 01:56:53;;;;;;;5.30;3.35;;;7.60;99.90;;;;;;5131230;28;20152;-71
2022/04/17 01:59:20;;;;;;;5.88;3.50;;;7.60;99.90;;;;;;5115892;28;20264;-71
2022/04/17 02:01:49;;;;;;;3.58;2.55;;;7.50;99.90;;;;;;5115852;28;20167;-71
2022/04/17 02:04:16;;;;;;;2.78;2.38;;;7.50;99.90;;;;;;5115839;28;20660;-72
2022/04/17 02:06:44;;;;;;;4.20;2.25;;;7.50;99.90;;;;;;5116066;28;20192;-71
2022/04/17 02:09:16;;;;;;;3.03;1.80;;;7.40;99.90;;;;;;5116333;28;20230;-71
2022/04/17 02:11:42;;;;;;;4.05;2.38;;;7.40;99.90;;;;;;5115993;28;20168;-71
2022/04/17 02:14:10;;;;;;;6.30;2.00;;;7.30;99.90;;;;;;5115811;28;20677;-71
2022/04/17 02:16:39;;;;;;;3.85;2.35;;;7.30;99.90;;;;;;5134246;28;20654;-71
2022/04/17 02:19:06;;;;;;;4.07;2.70;;;7.20;99.90;;;;;;5115449;28;20688;-71
2022/04/17 02:21:32;;;;;;;4.95;3.15;;;7.20;99.90;;;;;;5116020;28;20220;-71
2022/04/17 02:24:03;;;;;;;13.50;7.35;;;7.20;99.90;;;;;;5115599;28;20186;-71
2022/04/17 02:26:30;;;;;;;4.63;3.05;;;7.20;99.90;;;;;;5116361;28;20182;-71
2022/04/17 02:28:57;;;;;;;4.93;3.30;;;7.10;99.90;;;;;;5117342;27;20171;-71
2022/04/17 02:31:26;;;;;;;7.85;3.58;;;7.10;99.90;;;;;;5119751;27;20170;-71
2022/04/17 02:33:54;;;;;;;4.63;2.30;;;7.10;99.90;;;;;;5119283;27;20285;-71
2022/04/17 02:36:21;;;;;;;3.65;1.95;;;7.10;99.90;;;;;;5119685;27;20214;-71
2022/04/17 02:38:48;;;;;;;4.45;2.85;;;7.10;99.90;;;;;;5119700;27;20190;-71
2022/04/17 02:41:15;;;;;;;3.38;1.58;;;7.10;99.90;;;;;;5119409;27;20258;-71
2022/04/17 02:43:43;;;;;;;2.05;1.85;;;7.10;99.90;;;;;;5119591;27;20513;-71
2022/04/17 02:46:10;;;;;;;4.40;2.60;;;7.00;99.90;;;;;;5119605;27;20252;-71
2022/04/17 02:48:44;;;;;;;4.20;2.08;;;7.00;99.90;;;;;;5137858;27;20383;-71
2022/04/17 02:51:15;;;;;;;2.33;2.13;;;7.00;99.90;;;;;;5119462;27;20207;-71
2022/04/17 02:53:43;;;;;;;3.38;2.03;;;7.00;99.90;;;;;;5119298;27;20168;-71
2022/04/17 02:56:11;;;;;;;2.33;2.13;;;7.00;99.90;;;;;;5118690;27;20227;-71
2022/04/17 02:58:37;;;;;;;3.35;2.55;;;6.90;99.90;;;;;;5119235;27;20171;-71
2022/04/17 03:06:34;;;;;;;3.38;2.38;;;6.90;99.90;;;;;;5138090;27;20588;-71
2022/04/17 03:09:05;;;;;;;4.50;2.10;;;6.80;99.90;;;;;;5118901;27;20546;-71
2022/04/17 03:11:32;;;;;;;4.80;2.70;;;6.80;99.90;;;;;;5137475;27;20527;-71
2022/04/17 03:17:04;;;;;;;3.53;2.13;;;6.70;99.90;;;;;;5100274;27;20192;-71
2022/04/17 03:19:30;;;;;;;2.95;2.05;;;6.70;99.90;;;;;;5098786;28;20611;-71
2022/04/17 03:21:56;;;;;;;5.70;3.37;;;6.70;99.90;;;;;;5098846;28;20167;-71
2022/04/17 03:24:23;;;;;;;6.78;2.58;;;6.70;99.90;;;;;;5097968;28;20207;-71
2022/04/17 03:26:49;;;;;;;6.32;2.70;;;6.70;99.90;;;;;;5098187;28;20363;-71
2022/04/17 03:29:17;;;;;;;3.65;3.35;;;6.70;99.90;;;;;;5097941;28;20620;-71
2022/04/17 03:31:49;;;;;;;3.95;2.70;;;6.70;99.90;;;;;;5098044;28;20178;-71
2022/04/17 03:34:15;;;;;;;3.13;1.95;;;6.70;99.90;;;;;;5098056;28;20685;-71
2022/04/17 03:36:48;;;;;;;4.15;2.38;;;6.70;99.90;;;;;;5097994;28;20637;-71
2022/04/17 03:39:14;;;;;;;5.60;3.05;;;6.70;99.90;;;;;;5096755;28;20224;-71
2022/04/17 03:41:42;;;;;;;3.20;2.43;;;6.60;99.90;;;;;;5097930;28;20182;-71
2022/04/17 03:44:13;;;;;;;4.25;2.25;;;6.60;99.90;;;;;;5097766;28;20422;-71
2022/04/17 03:46:39;;;;;;;5.07;2.70;;;6.60;99.90;;;;;;5097916;28;20175;-71
2022/04/17 03:49:06;;;;;;;5.63;2.40;;;6.60;99.90;;;;;;5097747;28;20621;-71
2022/04/17 03:51:32;;;;;;;6.18;3.50;;;6.50;99.90;;;;;;5097662;28;20443;-71
2022/04/17 03:53:59;;;;;;;4.05;2.83;;;6.50;99.90;;;;;;5097101;28;20198;-71
2022/04/17 03:56:26;;;;;;;4.05;3.08;;;6.50;99.90;;;;;;5077501;28;20216;-71
2022/04/17 03:58:52;;;;;;;8.52;3.22;;;6.50;99.90;;;;;;5095299;28;20165;-71
2022/04/17 04:01:21;;;;;;;6.60;2.60;;;6.50;99.90;;;;;;5077525;28;20227;-71
2022/04/17 04:03:50;;;;;;;7.25;3.97;;;6.50;99.90;;;;;;5077175;28;20416;-71
2022/04/17 04:06:18;;;;;;;3.70;3.22;;;6.50;99.90;;;;;;5076594;28;20733;-71
2022/04/17 04:08:45;;;;;;;2.28;1.60;;;6.50;99.90;;;;;;5077322;28;20176;-71
2022/04/17 04:11:11;;;;;;;6.72;3.47;;;6.50;99.90;;;;;;5077518;28;20299;-72
2022/04/17 04:13:37;;;;;;;3.10;2.80;;;6.50;99.90;;;;;;5095421;28;20545;-71
2022/04/17 04:16:04;;;;;;;3.37;2.30;;;6.50;99.90;;;;;;5083779;28;20192;-71
2022/04/17 04:18:36;;;;;;;5.07;3.10;;;6.50;99.90;;;;;;5097138;28;20387;-71
2022/04/17 04:21:03;;;;;;;3.38;2.42;;;6.50;99.90;;;;;;5097334;28;20272;-71
2022/04/17 04:23:34;;;;;;;2.67;2.10;;;6.40;99.90;;;;;;5097386;28;20187;-71
2022/04/17 04:26:02;;;;;;;2.63;2.30;;;6.40;99.90;;;;;;5096785;28;20559;-71
2022/04/17 04:28:36;;;;;;;2.90;2.20;;;6.40;99.90;;;;;;5096463;28;20172;-71
2022/04/17 04:31:13;;;;;;;4.88;2.70;;;6.40;99.90;;;;;;5097392;28;20211;-71
2022/04/17 04:33:48;;;;;;;3.33;2.42;;;6.50;99.90;;;;;;5097026;28;20652;-71
2022/04/17 04:36:15;;;;;;;2.50;2.30;;;6.50;99.90;;;;;;5097404;28;20675;-71
2022/04/17 04:38:40;;;;;;;3.80;2.42;;;6.50;99.90;;;;;;5096517;28;20675;-71
2022/04/17 04:41:06;;;;;;;4.20;2.93;;;6.40;99.90;;;;;;5096784;28;20223;-71
2022/04/17 04:43:32;;;;;;;4.63;3.50;;;6.50;99.90;;;;;;5096721;28;20176;-71
2022/04/17 04:46:07;;;;;;;4.87;2.87;;;6.50;99.90;;;;;;5096766;28;20299;-71
2022/04/17 04:51:28;;;;;;;4.47;2.80;;;6.50;99.90;;;;;;5114609;28;20532;-71
2022/04/17 04:54:13;;;;;;;7.63;2.80;;;6.50;99.90;;;;;;5096368;28;20225;-71
2022/04/17 04:56:42;;;;;;;2.75;2.30;;;6.50;99.90;;;;;;5112286;27;20270;-71
2022/04/17 04:59:09;;;;;;;4.68;2.17;;;6.50;99.90;;;;;;5116660;27;20632;-71
2022/04/17 05:01:35;;;;;;;2.72;1.95;;;6.60;99.90;;;;;;5117009;27;20179;-71
2022/04/17 05:04:02;;;;;;;3.17;2.55;;;6.60;99.90;;;;;;5135165;27;20175;-71
2022/04/17 05:06:31;;;;;;;4.32;2.60;;;6.60;99.90;;;;;;5116749;27;20182;-71
2022/04/17 05:08:57;;;;;;;2.70;2.42;;;6.70;99.90;;;;;;5116642;27;20205;-71
2022/04/17 05:11:24;;;;;;;2.17;1.80;;;6.70;99.90;;;;;;5116690;27;20175;-71
2022/04/17 05:13:52;;;;;;;2.60;2.13;;;6.70;99.90;;;;;;5116388;27;20171;-71
2022/04/17 05:16:21;;;;;;;13.90;2.42;;;6.70;99.90;;;;;;5107430;28;20699;-71
2022/04/17 05:18:49;;;;;;;4.07;2.25;;;6.80;99.90;;;;;;5096315;28;20176;-71
2022/04/17 05:21:31;;;;;;;2.80;2.03;;;6.80;99.90;;;;;;5096553;28;20222;-71
2022/04/17 05:23:57;;;;;;;5.22;3.72;;;6.80;99.90;;;;;;5096156;28;20552;-71
2022/04/17 05:26:23;;;;;;;4.82;2.67;;;6.90;99.90;;;;;;5096082;28;20186;-71
2022/04/17 05:28:51;;;;;;;4.53;2.95;;;6.90;99.90;;;;;;5095910;28;20199;-71
2022/04/17 05:31:24;;;;;;;6.43;3.10;;;7.00;99.90;;;;;;5094375;28;20194;-71
2022/04/17 05:33:50;;;;;;;2.83;2.17;;;7.00;99.90;;;;;;5095926;28;20274;-71
2022/04/17 05:36:17;;;;;;;2.28;2.08;;;7.00;99.90;;;;;;5095938;28;20180;-71
2022/04/17 05:38:44;;;;;;;3.13;2.67;;;7.00;99.90;;;;;;5096272;28;20182;-71
2022/04/17 05:41:10;;;;;;;2.33;2.13;;;7.10;99.90;;;;;;5095761;28;20219;-71
2022/04/17 05:43:38;;;;;;;2.70;2.30;;;7.10;99.90;;;;;;5096337;28;20175;-71
2022/04/17 05:46:07;;;;;;;2.58;2.10;;;7.10;99.90;;;;;;5096146;28;20192;-72
2022/04/17 05:48:34;;;;;;;2.38;2.08;;;7.20;99.90;;;;;;5096144;28;20213;-71
2022/04/17 05:51:03;;;;;;;2.17;1.98;;;7.20;99.90;;;;;;5095787;28;20297;-71
2022/04/17 05:53:29;;;;;;;4.40;2.80;;;7.30;99.90;;;;;;5096083;28;20547;-71
2022/04/17 05:56:01;;;;;;;1.30;1.08;;;7.30;99.90;;;;;;5114090;28;20246;-71
2022/04/17 05:58:34;;;;;;;2.95;2.50;;;7.40;99.90;;;;;;5095950;28;20226;-72
2022/04/17 06:01:02;;;;;;;2.75;1.65;;;7.50;99.90;;;;;;5095654;28;20260;-72
2022/04/17 06:03:35;;;;;;;3.03;2.15;;;7.60;99.90;;;;;;5098515;28;20267;-72
2022/04/17 06:06:01;;;;;;;4.20;2.55;;;7.70;99.90;;;;;;5100037;28;20252;-71
2022/04/17 06:08:28;;;;;;;6.30;2.33;;;7.80;99.90;;;;;;5099865;28;20179;-71
2022/04/17 06:10:59;;;;;;;4.90;2.30;;;7.80;99.90;;;;;;5099814;28;20573;-71
2022/04/17 06:13:27;;;;;;;5.03;2.42;;;7.90;99.90;;;;;;5099335;28;20555;-71
2022/04/17 06:15:53;;;;;;;1.90;1.80;;;8.00;99.90;;;;;;5105398;27;20198;-72
2022/04/17 06:18:20;;;;;;;3.22;1.73;;;8.10;99.90;;;;;;5119884;27;20171;-71
2022/04/17 06:20:47;;;;;;;3.57;2.27;;;8.10;99.90;;;;;;5138698;27;20294;-71
2022/04/17 06:23:14;;;;;;;3.65;2.95;;;8.20;99.90;;;;;;5119933;27;20393;-71
2022/04/17 06:25:46;;;;;;;2.83;1.90;;;8.30;99.90;;;;;;5119780;27;20226;-72
2022/04/17 06:28:12;;;;;;;3.60;2.55;;;8.30;99.90;;;;;;5119441;27;20175;-71
2022/04/17 06:30:39;;;;;;;2.95;1.75;;;8.40;99.90;;;;;;5119500;27;20195;-72
2022/04/17 06:33:05;;;;;;;3.38;2.13;;;8.50;99.90;;;;;;5120027;27;20175;-72
2022/04/17 06:35:31;;;;;;;1.60;1.50;;;8.60;99.90;;;;;;5119833;27;20195;-70
2022/04/17 06:38:01;;;;;;;4.15;1.90;;;8.70;99.90;;;;;;5119363;27;20187;-71
2022/04/17 06:40:31;;;;;;;2.95;1.70;;;8.90;99.90;;;;;;5119888;27;20215;-70
2022/04/17 06:43:05;;;;;;;2.05;1.85;;;8.90;99.90;;;;;;5119750;27;20179;-71
2022/04/17 06:45:34;;;;;;;1.92;1.70;;;9.00;99.90;;;;;;5119485;27;20251;-70
2022/04/17 06:48:23;;;;;;;3.33;2.10;;;9.10;99.90;;;;;;5119497;27;20219;-70
2022/04/17 06:51:00;;;;;;;2.30;1.73;;;9.20;99.90;;;;;;5119298;27;20204;-70
2022/04/17 06:53:29;;;;;;;4.72;1.25;;;9.30;99.90;;;;;;5119457;27;20231;-70
2022/04/17 06:55:55;;;;;;;2.15;1.95;;;9.40;99.90;;;;;;5118861;27;20243;-70
2022/04/17 06:58:22;;;;;;;2.97;2.42;;;9.50;99.90;;;;;;5119387;27;20171;-70
2022/04/17 07:00:54;;;;;;;3.05;2.22;;;9.50;99.80;;;;;;5119186;27;20223;-70
2022/04/17 07:03:24;;;;;;;2.75;2.28;;;9.60;99.80;;;;;;5119751;27;20593;-70
2022/04/17 07:06:00;;;;;;;2.72;1.13;;;9.70;99.90;;;;;;5118002;27;20301;-70
2022/04/17 07:08:28;;;;;;;2.03;1.33;;;9.70;99.90;;;;;;5119238;27;20655;-70
2022/04/17 07:11:00;;;;;;;1.65;1.02;;;9.80;99.90;;;;;;5119486;27;20283;-70
2022/04/17 07:13:26;;;;;;;2.88;2.15;;;9.90;99.90;;;;;;5119779;27;20243;-70
2022/04/17 07:15:53;;;;;;;3.20;2.03;;;10.00;99.90;;;;;;5112375;28;20227;-71
2022/04/17 07:18:19;;;;;;;3.83;2.25;;;10.10;99.90;;;;;;5098434;28;20268;-71
2022/04/17 07:20:48;;;;;;;1.88;1.75;;;10.20;99.80;;;;;;5098309;28;20227;-70
2022/04/17 07:23:14;;;;;;;4.40;2.53;;;10.30;99.60;;;;;;5098391;28;20589;-70
2022/04/17 07:25:41;;;;;;;2.75;1.77;;;10.40;98.90;;;;;;5097857;28;20231;-70
2022/04/17 07:28:13;;;;;;;15.43;2.15;;;10.50;99.10;;;;;;5098117;28;20176;-70
2022/04/17 07:30:42;;;;;;;6.88;2.10;;;10.60;99.10;;;;;;5098062;28;20218;-70
2022/04/17 07:33:11;;;;;;;3.78;1.80;;;10.70;98.50;;;;;;5096603;28;20226;-70
2022/04/17 07:35:38;;;;;;;2.67;1.88;;;10.80;99.90;;;;;;5097874;28;20195;-70
2022/04/17 07:38:05;;;;;;;2.35;1.77;;;10.90;97.50;;;;;;5098065;28;20176;-70
2022/04/17 07:40:34;;;;;;;1.20;1.10;;;11.00;98.00;;;;;;5097938;28;20216;-70
2022/04/17 07:43:03;;;;;;;3.03;2.08;;;11.10;98.10;;;;;;5097862;28;20179;-71
2022/04/17 07:45:41;;;;;;;5.07;1.67;;;11.10;97.70;;;;;;5098041;28;20609;-70
2022/04/17 07:48:08;;;;;;;1.75;1.52;;;11.20;98.80;;;;;;5098077;28;20651;-70
2022/04/17 07:50:35;;;;;;;6.25;1.67;;;11.30;97.30;;;;;;5097634;28;20199;-70
2022/04/17 07:53:03;;;;;;;4.82;2.20;;;11.30;97.50;;;;;;5097757;28;20172;-70
2022/04/17 07:55:29;;;;;;;4.25;3.58;;;11.30;96.20;;;;;;5102426;28;20687;-70
2022/04/17 08:00:57;;;;;;;8.18;0.98;;;11.40;95.00;;;;;;5136272;27;20215;-70
2022/04/17 08:06:20;;;;;;;0.95;0.93;;;11.70;99.90;;;;;;5130979;27;20663;-70
2022/04/17 08:08:51;;;;;;;0.45;0.45;;;11.80;99.90;;;;;;5118018;27;20178;-70
2022/04/17 08:11:17;;;;;;;8.48;2.55;;;11.90;99.90;;;;;;5117743;27;20179;-70
2022/04/17 08:13:44;;;;;;;3.22;1.02;;;12.00;99.90;;;;;;5117737;27;20178;-70
2022/04/17 08:16:14;;;;;;;4.22;1.02;;;12.00;99.90;;;;;;5117061;27;20222;-70
2022/04/17 08:18:46;;;;;;;3.25;1.42;;;12.10;99.90;;;;;;5117448;27;20206;-70
2022/04/17 08:21:12;;;;;;;3.80;2.15;;;12.20;99.50;;;;;;5117598;27;20219;-70
2022/04/17 08:23:38;;;;;;;6.55;2.03;;;12.30;99.60;;;;;;5134640;27;20266;-70
2022/04/17 08:26:06;;;;;;;15.13;2.25;;;12.40;99.30;;;;;;5133567;27;20231;-71
2022/04/17 08:28:34;;;;;;;16.77;1.67;;;12.50;98.00;;;;;;5134943;27;20183;-70
2022/04/17 08:31:00;;;;;;;0.98;0.82;;;12.50;97.20;;;;;;5117463;27;20194;-70
2022/04/17 08:33:27;;;;;;;9.13;1.48;;;12.70;99.00;;;;;;5134824;27;20174;-71
2022/04/17 08:35:59;;;;;;;3.13;1.77;;;12.80;98.90;;;;;;5134362;27;20207;-71
2022/04/17 08:38:28;;;;;;;9.43;2.20;;;12.90;98.50;;;;;;5117414;27;20228;-71
2022/04/17 08:41:01;;;;;;;6.82;2.22;;;13.00;94.80;;;;;;5117287;27;20233;-71
2022/04/17 08:43:29;;;;;;;2.05;1.38;;;13.10;96.00;;;;;;5117599;27;20175;-70
2022/04/17 08:46:12;;;;;;;8.75;1.83;;;13.10;95.20;;;;;;5117251;27;20206;-70
2022/04/17 08:48:39;;;;;;;8.25;2.38;;;13.20;97.70;;;;;;5116906;27;20211;-71
2022/04/17 08:51:05;;;;;;;0.77;0.77;;;13.40;94.60;;;;;;5117094;27;20199;-70
2022/04/17 08:53:36;;;;;;;1.40;1.30;;;13.70;99.00;;;;;;5134118;27;20464;-70
2022/04/17 08:56:04;;;;;;;6.90;1.70;;;14.20;99.20;;;;;;5103918;28;20521;-70
2022/04/17 08:58:34;;;;;;;1.67;1.57;;;14.70;95.30;;;;;;5096612;28;20460;-71
2022/04/17 09:01:03;;;;;;;3.60;1.67;;;15.30;96.90;;;;;;5096439;28;20862;-71
2022/04/17 09:03:31;;;;;;;1.93;1.67;;;15.70;94.70;;;;;;5096519;28;20928;-71
2022/04/17 09:06:00;;;;;;;5.13;1.63;;;16.10;92.70;;;;;;5096293;28;20525;-71
2022/04/17 09:08:28;;;;;;;6.27;1.40;;;16.30;87.90;;;;;;5096395;28;20431;-71
2022/04/17 09:10:58;;;;;;;12.67;2.30;;;16.50;92.70;;;;;;5096288;28;20578;-71
2022/04/17 09:13:33;;;;;;;2.27;2.03;;;16.50;84.10;;;;;;5096309;28;20404;-71
2022/04/17 09:16:01;;;;;;;7.10;2.13;;;16.50;83.00;;;;;;5096135;28;20531;-71
2022/04/17 09:18:29;;;;;;;2.40;0.93;;;16.40;86.20;;;;;;5096251;28;20483;-71
2022/04/17 09:20:56;;;;;;;20.20;3.63;;;16.20;92.40;;;;;;5095954;28;20484;-71
2022/04/17 09:23:36;;;;;;;15.40;2.63;;;16.10;86.20;;;;;;5095100;28;20400;-71
2022/04/17 09:26:04;;;;;;;2.17;1.10;;;15.90;87.20;;;;;;5094389;28;20448;-71
2022/04/17 09:28:36;;;;;;;10.23;1.43;;;15.80;90.60;;;;;;5094400;28;20808;-71
2022/04/17 09:31:09;;;;;;;12.20;2.53;;;15.70;89.70;;;;;;5094418;28;20458;-71
2022/04/17 09:33:41;;;;;;;2.00;1.57;;;15.60;88.70;;;;;;5094594;28;20401;-71
2022/04/17 09:36:08;;;;;;;6.00;2.07;;;15.60;89.80;;;;;;5094190;28;20440;-71
2022/04/17 09:38:35;;;;;;;13.53;2.87;;;15.50;89.20;;;;;;5085532;28;20412;-71
2022/04/17 09:41:13;;;;;;;1.40;1.20;;;15.40;83.80;;;;;;5072236;28;20485;-71
2022/04/17 09:43:43;;;;;;;4.73;1.47;;;15.50;90.60;;;;;;5072929;28;20423;-71
2022/04/17 09:46:13;;;;;;;6.10;2.50;;;15.30;90.20;;;;;;5074584;28;20551;-71
2022/04/17 09:48:44;;;;;;;3.70;2.07;;;15.30;86.70;;;;;;5075773;28;20416;-71
2022/04/17 09:51:32;;;;;;;3.93;1.60;;;15.20;82.40;;;;;;5075639;28;20459;-71
2022/04/17 09:54:07;;;;;;;6.63;2.20;;;15.20;87.00;;;;;;5075355;28;20405;-71
2022/04/17 09:56:46;;;;;;;0.67;0.50;;;15.30;88.00;;;;;;5092789;28;20477;-71
2022/04/17 09:59:18;;;;;;;3.77;1.93;;;15.30;90.70;;;;;;5095495;28;20538;-71
2022/04/17 10:01:54;;;;;;;3.20;1.70;;;15.30;91.00;;;;;;5094038;28;20918;-71
2022/04/17 10:04:24;;;;;;;3.97;1.97;;;15.40;92.80;;;;;;5093716;28;20849;-71
2022/04/17 10:06:54;;;;;;;1.90;1.80;;;15.40;90.50;;;;;;5093897;28;20412;-72
2022/04/17 10:09:22;;;;;;;4.70;1.40;;;15.40;92.20;;;;;;5093870;28;20444;-72
2022/04/17 10:11:51;;;;;;;4.83;2.13;;;15.40;90.40;;;;;;5093126;28;20408;-71
2022/04/17 10:14:18;;;;;;;2.97;2.77;;;15.40;91.40;;;;;;5093673;28;20440;-71
2022/04/17 10:16:48;;;;;;;6.33;1.77;;;15.40;90.30;;;;;;5108493;28;20474;-72
2022/04/17 10:19:21;;;;;;;10.20;2.40;;;15.30;85.80;;;;;;5104247;28;20463;-72
2022/04/17 10:21:49;;;;;;;6.80;1.23;;;15.30;86.10;;;;;;5112756;28;20407;-73
2022/04/17 10:24:19;;;;;;;0.60;0.60;;;15.20;91.10;;;;;;5116006;28;20801;-72
2022/04/17 10:26:53;;;;;;;4.83;1.70;;;15.30;90.40;;;;;;5116220;28;20458;-72
2022/04/17 10:29:31;;;;;;;10.73;2.20;;;15.30;90.10;;;;;;5134192;28;20515;-72
2022/04/17 10:32:35;;;;;;;5.10;2.17;;;15.30;90.70;;;;;;5134234;28;20844;-72
2022/04/17 10:35:27;;;;;;;5.83;1.57;;;15.30;88.20;;;;;;5115778;28;20451;-72
2022/04/17 10:38:25;;;;;;;16.10;2.50;;;15.20;87.80;;;;;;5115783;28;20421;-72
2022/04/17 10:41:09;;;;;;;2.77;2.00;;;15.20;90.40;;;;;;5115938;28;20949;-72
2022/04/17 10:43:53;;;;;;;9.83;1.77;;;15.10;84.60;;;;;;5116250;28;20911;-72
2022/04/17 10:46:25;;;;;;;10.00;2.70;;;15.10;88.00;;;;;;5115785;28;20893;-72
2022/04/17 10:49:02;;;;;;;12.60;3.30;;;15.10;87.90;;;;;;5115600;28;20411;-72
2022/04/17 10:51:30;;;;;;;21.83;3.80;;;15.10;84.90;;;;;;5119413;27;20422;-71
2022/04/17 10:54:05;;;;;;;6.00;1.67;;;15.20;89.50;;;;;;5119015;27;20399;-72
2022/04/17 10:56:37;;;;;;;14.10;2.30;;;15.30;91.60;;;;;;5112259;28;20463;-71
2022/04/17 10:59:20;;;;;;;2.70;1.30;;;15.30;87.80;;;;;;5095259;28;20436;-72
2022/04/17 11:01:51;;;;;;;7.97;2.17;;;15.30;87.10;;;;;;5091714;28;20921;-72
2022/04/17 11:04:36;;;;;;;9.80;1.73;;;15.40;90.00;;;;;;5094614;28;20555;-72
2022/04/17 11:07:06;;;;;;;4.00;1.80;;;15.40;89.90;;;;;;5096287;28;20918;-72
2022/04/17 11:09:42;;;;;;;11.00;3.43;;;15.50;91.10;;;;;;5098711;28;20464;-72
2022/04/17 11:12:18;;;;;;;13.33;2.00;;;15.50;85.00;;;;;;5099235;28;20524;-72
2022/04/17 11:15:17;;;;;;;4.60;1.97;;;15.50;86.50;;;;;;5097680;28;20552;-72
2022/04/17 11:17:46;;;;;;;5.53;4.53;;;15.60;89.80;;;;;;5090034;28;20435;-72
2022/04/17 11:20:21;;;;;;;1.80;1.33;;;15.60;89.00;;;;;;5098449;28;20468;-72
2022/04/17 11:22:57;;;;;;;4.07;1.80;;;15.60;90.70;;;;;;5098468;28;20430;-72
2022/04/17 11:25:30;;;;;;;2.80;1.10;;;15.60;91.10;;;;;;5098631;28;20475;-72
2022/04/17 11:28:02;;;;;;;3.40;1.57;;;15.70;87.20;;;;;;5098246;28;20416;-72
2022/04/17 11:30:28;;;;;;;4.50;1.10;;;15.70;90.30;;;;;;5098378;28;20798;-72
2022/04/17 11:32:56;;;;;;;6.60;2.03;;;15.80;87.20;;;;;;5097539;28;20420;-72
2022/04/17 11:35:23;;;;;;;2.17;1.40;;;15.80;82.00;;;;;;5098257;28;20462;-72
2022/04/17 11:37:51;;;;;;;9.30;3.03;;;15.80;87.80;;;;;;5098259;28;20489;-72
2022/04/17 11:40:19;;;;;;;4.20;1.43;;;15.90;89.40;;;;;;5097870;28;20515;-72
2022/04/17 11:42:47;;;;;;;2.70;1.67;;;15.90;88.30;;;;;;5098124;28;20412;-72
2022/04/17 11:45:17;;;;;;;2.30;1.70;;;15.90;89.10;;;;;;5098169;28;20456;-72
2022/04/17 11:47:48;;;;;;;0.70;0.70;;;15.90;90.10;;;;;;5097978;28;20469;-72
2022/04/17 11:50:26;;;;;;;2.43;0.60;;;16.00;91.20;;;;;;5098208;28;20813;-72
2022/04/17 11:53:03;;;;;;;5.60;1.83;;;16.00;91.30;;;;;;5097924;28;20424;-72
2022/04/17 11:55:33;;;;;;;8.80;2.93;;;16.00;89.30;;;;;;5105845;27;20868;-72
2022/04/17 11:57:59;;;;;;;7.47;1.60;;;15.90;82.10;;;;;;5118316;27;20491;-72
2022/04/17 12:03:36;;;;;;;1.63;1.13;;;15.90;82.30;;;;;;5111274;28;20409;-72
2022/04/17 12:06:10;;;;;;;1.33;1.13;;;15.90;89.80;;;;;;5114823;28;20496;-72
2022/04/17 12:08:37;;;;;;;4.10;1.47;;;16.00;90.30;;;;;;5096522;28;20424;-72
2022/04/17 12:11:14;;;;;;;5.60;1.73;;;16.00;85.50;;;;;;5096357;28;20452;-71
2022/04/17 12:13:52;;;;;;;8.83;1.60;;;16.00;86.20;;;;;;5096420;28;20815;-72
2022/04/17 12:16:58;;;;;;;31.97;3.20;;;16.00;86.60;;;;;;5097155;28;20424;-72
2022/04/17 12:19:30;;;;;;;6.13;2.17;;;16.10;88.10;;;;;;5093964;28;20447;-72
2022/04/17 12:21:56;;;;;;;4.40;1.60;;;16.00;79.60;;;;;;5114380;27;20454;-72
2022/04/17 12:24:26;;;;;;;8.97;2.07;;;16.00;81.70;;;;;;5115597;27;20428;-72
2022/04/17 12:26:55;;;;;;;6.53;1.60;;;16.00;83.30;;;;;;5116399;27;20510;-72
2022/04/17 12:29:23;;;;;;;6.37;2.20;;;16.00;84.80;;;;;;5117453;27;20538;-72
2022/04/17 12:31:50;;;;;;;11.57;1.30;;;16.10;86.60;;;;;;5134618;27;20780;-72
2022/04/17 12:34:19;;;;;;;7.70;2.50;;;16.10;90.00;;;;;;5117432;27;20443;-72
2022/04/17 12:36:49;;;;;;;4.03;1.70;;;16.00;81.70;;;;;;5117505;27;20475;-72
2022/04/17 12:39:33;;;;;;;7.70;2.00;;;16.00;79.50;;;;;;5134346;27;20463;-72
2022/04/17 12:42:16;;;;;;;18.33;2.97;;;15.90;81.20;;;;;;5117028;27;20798;-72
2022/04/17 12:44:42;;;;;;;7.10;3.10;;;16.00;86.80;;;;;;5117239;27;20451;-72
2022/04/17 12:47:13;;;;;;;4.07;2.10;;;16.00;85.50;;;;;;5116251;27;20415;-72
2022/04/17 12:49:41;;;;;;;1.67;0.93;;;16.00;77.10;;;;;;5116988;27;20794;-72
2022/04/17 12:52:21;;;;;;;6.83;2.27;;;16.10;87.10;;;;;;5117366;27;20381;-72
2022/04/17 12:54:48;;;;;;;7.23;1.80;;;16.10;79.00;;;;;;5116419;27;20455;-72
2022/04/17 12:57:20;;;;;;;7.53;1.70;;;16.10;82.40;;;;;;5117034;27;20435;-72
2022/04/17 12:59:52;;;;;;;1.80;0.90;;;16.10;74.90;;;;;;5116908;27;20973;-72
2022/04/17 13:02:24;;;;;;;10.40;1.90;;;16.10;83.60;;;;;;5116845;27;20479;-72
2022/04/17 13:04:59;;;;;;;18.23;1.90;;;16.10;81.60;;;;;;5117020;27;20477;-72
2022/04/17 13:07:38;;;;;;;14.27;2.57;;;16.10;84.60;;;;;;5116995;27;20746;-72
2022/04/17 13:10:15;;;;;;;4.70;1.63;;;16.10;81.00;;;;;;5115608;27;20450;-72
2022/04/17 13:12:50;;;;;;;3.33;1.73;;;16.10;86.50;;;;;;5115938;27;20980;-72
2022/04/17 13:15:16;;;;;;;7.50;2.20;;;16.10;84.80;;;;;;5116163;27;20561;-72
2022/04/17 13:17:51;;;;;;;2.70;1.27;;;16.10;87.30;;;;;;5113152;28;20959;-72
2022/04/17 13:20:18;;;;;;;11.07;1.87;;;16.10;84.70;;;;;;5113211;28;20486;-72
2022/04/17 13:22:44;;;;;;;14.13;3.03;;;16.10;84.30;;;;;;5113098;28;20423;-72
2022/04/17 13:25:15;;;;;;;11.70;2.70;;;16.00;77.70;;;;;;5113094;28;20430;-72
2022/04/17 13:27:44;;;;;;;2.00;1.57;;;16.00;80.70;;;;;;5112872;28;20219;-72
2022/04/17 13:30:12;;;;;;;5.13;1.50;;;16.00;84.70;;;;;;5113049;28;20439;-72
2022/04/17 13:32:38;;;;;;;10.30;1.70;;;15.90;76.60;;;;;;5112999;28;20411;-72